MSC Zebra — 9HA3367 — position and weather

sailwx.info

Track history (hours):
 
Tides and Currents Weather Stations Pressure Air Temp Water Temp Dewpoint Dewpoint Depression Visibility Wind Speed Wind Dir Waves Ship Positions

MSC Zebra

Last reported at 2017-Oct-28 16:35 UTC. Time now 2017-Nov-21 23:15 UTC.
Position N 25°28' W 080°00'.
Warning: this ship's position is 24 days out of date.

Length 210 m; draft 8.1 m.

Type: Cargo ship. MMSI: 229481000.

Date/timePositionNaut miles runAvg speedWind from/ knotsBaromVisibWave heightAir tempDewpointWater temp
2017-Oct-28 16:35N 25°28' W 080°00'2 9.2
2017-Oct-28 16:23N 25°30' W 080°00'4 9.4
2017-Oct-28 16:00N 25°33' W 079°60'5 9.5
2017-Oct-28 15:30N 25°38' W 079°60'5 9.6
2017-Oct-28 15:00N 25°43' W 080°00'5 9.4
2017-Oct-28 14:31N 25°48' W 080°00'4 8.1
2017-Oct-28 14:00N 25°52' W 080°01'4 8.7
2017-Oct-28 13:30N 25°56' W 080°02'4 8.6
2017-Oct-28 13:00N 26°00' W 080°03'5 9.2
2017-Oct-28 12:30N 26°05' W 080°05'2 3.9
2017-Oct-28 12:00N 26°05' W 080°07'1 1.2
2017-Oct-28 11:26N 26°04' W 080°07'0 0.0
2017-Oct-28 10:59N 26°04' W 080°07'0 0.0
2017-Oct-28 10:26N 26°04' W 080°07'0 0.0
2017-Oct-28 09:56N 26°04' W 080°07'0 0.0
2017-Oct-28 09:26N 26°04' W 080°07'0 0.0
2017-Oct-28 08:56N 26°04' W 080°07'0 0.0
2017-Oct-28 08:29N 26°04' W 080°07'0 0.0
2017-Oct-28 07:41N 26°04' W 080°07'0 0.0
2017-Oct-28 07:26N 26°04' W 080°07'0 0.0
2017-Oct-28 06:59N 26°04' W 080°07'0 0.0
2017-Oct-28 06:29N 26°04' W 080°07'0 0.0
2017-Oct-28 05:59N 26°04' W 080°07'0 0.0
2017-Oct-28 05:29N 26°04' W 080°07'0 0.0
2017-Oct-28 04:56N 26°04' W 080°07'0 0.0
2017-Oct-28 04:29N 26°04' W 080°07'0 0.0
2017-Oct-28 03:59N 26°04' W 080°07'0 0.0
2017-Oct-28 03:29N 26°04' W 080°07'0 0.0
2017-Oct-28 02:59N 26°04' W 080°07'0 0.0
2017-Oct-28 02:29N 26°04' W 080°07'0 0.0
2017-Oct-28 01:59N 26°04' W 080°07'0 0.0
2017-Oct-28 01:29N 26°04' W 080°07'0 0.0
2017-Oct-28 00:50N 26°04' W 080°07'0 0.0
2017-Oct-28 00:20N 26°04' W 080°07'0 0.0
2017-Oct-27 23:53N 26°04' W 080°07'0 0.0
2017-Oct-27 23:20N 26°04' W 080°07'0 0.0
2017-Oct-27 22:53N 26°04' W 080°07'0 0.0
2017-Oct-27 22:23N 26°04' W 080°07'0 0.0
2017-Oct-27 21:53N 26°04' W 080°07'0 0.0
2017-Oct-27 21:23N 26°04' W 080°07'0 0.0
2017-Oct-27 20:56N 26°04' W 080°07'0 0.0
2017-Oct-27 20:23N 26°04' W 080°07'0 0.0
2017-Oct-27 19:56N 26°04' W 080°07'0 0.0
2017-Oct-27 19:26N 26°04' W 080°07'0 0.0
2017-Oct-27 18:56N 26°04' W 080°07'0 0.0
2017-Oct-27 18:29N 26°04' W 080°07'0 0.0
2017-Oct-27 17:59N 26°04' W 080°07'0 0.0
2017-Oct-27 17:26N 26°04' W 080°07'0 0.0
2017-Oct-27 16:59N 26°04' W 080°07'0 0.0
2017-Oct-27 16:29N 26°04' W 080°07'0 0.0
2017-Oct-27 15:44N 26°04' W 080°07'0 0.0
2017-Oct-27 15:29N 26°04' W 080°07'0 0.0
2017-Oct-27 14:59N 26°04' W 080°07'0 0.0
2017-Oct-27 14:29N 26°04' W 080°07'0 0.1
2017-Oct-27 14:00N 26°04' W 080°07'1 2.7
2017-Oct-27 13:30N 26°06' W 080°07'4 7.7
2017-Oct-27 13:00N 26°05' W 080°03'1 1.2
2017-Oct-27 12:30N 26°05' W 080°02'4 7.7
2017-Oct-27 12:00N 26°06' W 079°58'3 6.2
2017-Oct-27 11:30N 26°09' W 079°57'1 1.1
2017-Oct-27 11:00N 26°08' W 079°56'1 2.1
2017-Oct-27 10:30N 26°07' W 079°56'1 2.2
2017-Oct-27 10:00N 26°06' W 079°56'1 2.6
2017-Oct-27 09:30N 26°05' W 079°56'1 2.3
2017-Oct-27 09:00N 26°04' W 079°56'1 2.5
2017-Oct-27 08:30N 26°03' W 079°55'612.8
2017-Oct-27 08:01N 25°56' W 079°53'713.9
2017-Oct-27 07:30N 25°50' W 079°53'714.1
2017-Oct-27 07:00N 25°42' W 079°52'714.2
2017-Oct-27 06:30N 25°35' W 079°52'714.2
2017-Oct-27 06:00N 25°28' W 079°52'713.7
2017-Oct-27 05:30N 25°21' W 079°53'  
Track history (hours):
 
Tides and Currents Weather Stations Pressure Air Temp Water Temp Dewpoint Dewpoint Depression Visibility Wind Speed Wind Dir Waves Ship Positions

MSC Zebra

Last reported at 2017-Oct-28 16:35 UTC. Time now 2017-Nov-21 23:15 UTC.
Position N 25°28' W 080°00'.
Warning: this ship's position is 24 days out of date.

Length 210 m; draft 8.1 m.

Type: Cargo ship. MMSI: 229481000.

Date/timePositionNaut miles runAvg speedWind from/ knotsBaromVisibWave heightAir tempDewpointWater temp
2017-Oct-28 16:35N 25°28' W 080°00'2 9.2
2017-Oct-28 16:23N 25°30' W 080°00'4 9.4
2017-Oct-28 16:00N 25°33' W 079°60'5 9.5
2017-Oct-28 15:30N 25°38' W 079°60'5 9.6
2017-Oct-28 15:00N 25°43' W 080°00'5 9.4
2017-Oct-28 14:31N 25°48' W 080°00'4 8.1
2017-Oct-28 14:00N 25°52' W 080°01'4 8.7
2017-Oct-28 13:30N 25°56' W 080°02'4 8.6
2017-Oct-28 13:00N 26°00' W 080°03'5 9.2
2017-Oct-28 12:30N 26°05' W 080°05'2 3.9
2017-Oct-28 12:00N 26°05' W 080°07'1 1.2
2017-Oct-28 11:26N 26°04' W 080°07'0 0.0
2017-Oct-28 10:59N 26°04' W 080°07'0 0.0
2017-Oct-28 10:26N 26°04' W 080°07'0 0.0
2017-Oct-28 09:56N 26°04' W 080°07'0 0.0
2017-Oct-28 09:26N 26°04' W 080°07'0 0.0
2017-Oct-28 08:56N 26°04' W 080°07'0 0.0
2017-Oct-28 08:29N 26°04' W 080°07'0 0.0
2017-Oct-28 07:41N 26°04' W 080°07'0 0.0
2017-Oct-28 07:26N 26°04' W 080°07'0 0.0
2017-Oct-28 06:59N 26°04' W 080°07'0 0.0
2017-Oct-28 06:29N 26°04' W 080°07'0 0.0
2017-Oct-28 05:59N 26°04' W 080°07'0 0.0
2017-Oct-28 05:29N 26°04' W 080°07'0 0.0
2017-Oct-28 04:56N 26°04' W 080°07'0 0.0
2017-Oct-28 04:29N 26°04' W 080°07'0 0.0
2017-Oct-28 03:59N 26°04' W 080°07'0 0.0
2017-Oct-28 03:29N 26°04' W 080°07'0 0.0
2017-Oct-28 02:59N 26°04' W 080°07'0 0.0
2017-Oct-28 02:29N 26°04' W 080°07'0 0.0
2017-Oct-28 01:59N 26°04' W 080°07'0 0.0
2017-Oct-28 01:29N 26°04' W 080°07'0 0.0
2017-Oct-28 00:50N 26°04' W 080°07'0 0.0
2017-Oct-28 00:20N 26°04' W 080°07'0 0.0
2017-Oct-27 23:53N 26°04' W 080°07'0 0.0
2017-Oct-27 23:20N 26°04' W 080°07'0 0.0
2017-Oct-27 22:53N 26°04' W 080°07'0 0.0
2017-Oct-27 22:23N 26°04' W 080°07'0 0.0
2017-Oct-27 21:53N 26°04' W 080°07'0 0.0
2017-Oct-27 21:23N 26°04' W 080°07'0 0.0
2017-Oct-27 20:56N 26°04' W 080°07'0 0.0
2017-Oct-27 20:23N 26°04' W 080°07'0 0.0
2017-Oct-27 19:56N 26°04' W 080°07'0 0.0
2017-Oct-27 19:26N 26°04' W 080°07'0 0.0
2017-Oct-27 18:56N 26°04' W 080°07'0 0.0
2017-Oct-27 18:29N 26°04' W 080°07'0 0.0
2017-Oct-27 17:59N 26°04' W 080°07'0 0.0
2017-Oct-27 17:26N 26°04' W 080°07'0 0.0
2017-Oct-27 16:59N 26°04' W 080°07'0 0.0
2017-Oct-27 16:29N 26°04' W 080°07'0 0.0
2017-Oct-27 15:44N 26°04' W 080°07'0 0.0
2017-Oct-27 15:29N 26°04' W 080°07'0 0.0
2017-Oct-27 14:59N 26°04' W 080°07'0 0.0
2017-Oct-27 14:29N 26°04' W 080°07'0 0.1
2017-Oct-27 14:00N 26°04' W 080°07'1 2.7
2017-Oct-27 13:30N 26°06' W 080°07'4 7.7
2017-Oct-27 13:00N 26°05' W 080°03'1 1.2
2017-Oct-27 12:30N 26°05' W 080°02'4 7.7
2017-Oct-27 12:00N 26°06' W 079°58'3 6.2
2017-Oct-27 11:30N 26°09' W 079°57'1 1.1
2017-Oct-27 11:00N 26°08' W 079°56'1 2.1
2017-Oct-27 10:30N 26°07' W 079°56'1 2.2
2017-Oct-27 10:00N 26°06' W 079°56'1 2.6
2017-Oct-27 09:30N 26°05' W 079°56'1 2.3
2017-Oct-27 09:00N 26°04' W 079°56'1 2.5
2017-Oct-27 08:30N 26°03' W 079°55'612.8
2017-Oct-27 08:01N 25°56' W 079°53'713.9
2017-Oct-27 07:30N 25°50' W 079°53'714.1
2017-Oct-27 07:00N 25°42' W 079°52'714.2
2017-Oct-27 06:30N 25°35' W 079°52'714.2
2017-Oct-27 06:00N 25°28' W 079°52'713.7
2017-Oct-27 05:30N 25°21' W 079°53'  

Dump ship's entire track history